Terminal Aerodrome Forecast
Issued by NWS Billings, MT

Home | Current Version | Previous Version | Graphics & Text | Print | Product List | Glossary On
Versions: 1 2 3 4 5 6 7 8 9 10 11 12 13 14 15 16 17 18 19 20 21 22 23 24 25
000
FTUS45 KBYZ 271136
TAFMLS
TAF
KMLS 271136Z 2712/2812 03007KT P6SM BKN100 OVC150
     FM271400 18008KT P6SM BKN100
     FM272200 05008KT P6SM VCTS BKN100CB
     FM280500 20008KT P6SM SCT100=

USA.gov is the U.S. government's official web portal to all federal, state and local government web resources and services.